createdAt,value
2023-07-14T00:01:30.235Z,8.00
2023-07-14T00:03:57.353Z,7.00
2023-07-14T00:06:24.011Z,6.67
2023-07-14T00:08:50.754Z,6.30
2023-07-14T00:11:18.840Z,5.85
2023-07-14T00:13:45.590Z,5.60
2023-07-14T00:16:15.850Z,5.00
2023-07-14T00:18:42.347Z,4.77
2023-07-14T00:21:18.311Z,4.03
2023-07-14T00:23:45.285Z,3.85
2023-07-14T00:26:15.244Z,3.70
2023-07-14T00:28:41.832Z,3.33
2023-07-14T00:31:11.022Z,3.10
2023-07-14T00:33:37.866Z,3.15
2023-07-14T00:36:04.392Z,3.00
2023-07-14T00:38:30.822Z,3.00
2023-07-14T00:40:57.612Z,2.80
2023-07-14T00:43:25.510Z,2.80
2023-07-14T00:45:52.945Z,3.00
2023-07-14T00:48:21.386Z,3.10
2023-07-14T00:51:05.974Z,3.05
2023-07-14T00:53:34.525Z,2.60
2023-07-14T00:56:01.298Z,2.90
2023-07-14T00:58:28.699Z,3.00
2023-07-14T01:01:02.535Z,3.00
2023-07-14T01:03:29.239Z,2.88
2023-07-14T01:05:56.449Z,2.80
2023-07-14T01:08:23.020Z,2.93
2023-07-14T01:10:49.889Z,2.88
2023-07-14T01:13:16.939Z,2.63
2023-07-14T01:15:43.625Z,2.90
2023-07-14T01:18:11.359Z,3.13
2023-07-14T01:20:38.432Z,3.00
2023-07-14T01:23:20.532Z,3.20
2023-07-14T01:25:46.881Z,3.10
2023-07-14T01:28:14.721Z,3.30
2023-07-14T01:30:41.253Z,3.20
2023-07-14T01:33:14.360Z,3.10
2023-07-14T01:35:43.621Z,3.42
2023-07-14T01:38:10.075Z,3.40
2023-07-14T01:40:36.649Z,3.33
2023-07-14T01:43:06.651Z,3.30
2023-07-14T01:45:38.378Z,3.13
2023-07-14T01:48:05.172Z,3.35
2023-07-14T01:50:34.377Z,3.08
2023-07-14T01:53:05.651Z,3.67
2023-07-14T01:55:33.325Z,3.90
2023-07-14T01:58:00.459Z,3.97
2023-07-14T02:00:27.067Z,4.03
2023-07-14T02:02:54.479Z,4.53
2023-07-14T02:05:24.771Z,4.50
2023-07-14T02:07:51.309Z,4.78
2023-07-14T02:10:19.447Z,4.87
2023-07-14T02:12:46.123Z,5.00
2023-07-14T02:15:12.615Z,5.18
2023-07-14T02:17:39.120Z,5.47
2023-07-14T02:20:07.732Z,5.43
2023-07-14T02:22:35.133Z,5.90
2023-07-14T02:25:02.126Z,5.60
2023-07-14T02:27:28.679Z,5.75
2023-07-14T02:29:59.717Z,6.00
2023-07-14T02:32:30.824Z,6.07
2023-07-14T02:35:00.814Z,6.03
2023-07-14T02:37:45.683Z,5.78
2023-07-14T02:40:13.486Z,5.90
2023-07-14T02:42:40.463Z,5.80
2023-07-14T02:45:07.191Z,6.07
2023-07-14T02:47:35.635Z,5.93
2023-07-14T02:50:02.082Z,5.85
2023-07-14T02:52:28.605Z,5.80
2023-07-14T02:54:54.968Z,5.57
2023-07-14T02:57:21.419Z,6.30
2023-07-14T02:59:47.851Z,6.00
2023-07-14T03:02:14.314Z,5.95
2023-07-14T03:04:40.794Z,6.22
2023-07-14T03:07:07.241Z,6.10
2023-07-14T03:09:33.635Z,6.40
2023-07-14T03:12:00.052Z,6.97
2023-07-14T03:14:26.498Z,7.97
2023-07-14T03:16:53.145Z,7.00
2023-07-14T03:19:19.683Z,6.63
2023-07-14T03:21:46.109Z,6.40
2023-07-14T03:24:12.487Z,6.00
2023-07-14T03:26:38.957Z,6.45
2023-07-14T03:29:05.420Z,5.93
2023-07-14T03:31:31.916Z,6.50
2023-07-14T03:33:58.425Z,6.47
2023-07-14T03:36:24.761Z,5.97
2023-07-14T03:39:11.273Z,6.03
2023-07-14T03:41:37.672Z,6.10
2023-07-14T03:44:04.152Z,5.70
2023-07-14T03:46:30.514Z,6.07
2023-07-14T03:48:56.885Z,6.03
2023-07-14T03:51:23.312Z,6.05
2023-07-14T03:53:49.750Z,6.25
2023-07-14T03:56:16.532Z,6.20
2023-07-14T03:58:43.114Z,6.47
2023-07-14T04:01:09.581Z,6.63
2023-07-14T04:03:36.038Z,5.95
2023-07-14T04:06:02.510Z,6.18
2023-07-14T04:08:28.920Z,6.20
2023-07-14T04:10:55.315Z,6.18
2023-07-14T04:13:21.713Z,6.37
2023-07-14T04:15:48.105Z,6.30
2023-07-14T04:18:14.584Z,6.30
2023-07-14T04:20:40.935Z,6.20
2023-07-14T04:23:07.455Z,6.30
2023-07-14T04:25:34.824Z,6.07
2023-07-14T04:28:01.180Z,6.53
2023-07-14T04:30:27.586Z,6.05
2023-07-14T04:32:54.061Z,6.40
2023-07-14T04:35:20.511Z,5.78
2023-07-14T04:37:46.908Z,5.60
2023-07-14T04:40:29.997Z,6.10
2023-07-14T04:42:59.843Z,5.78
2023-07-14T04:45:26.235Z,5.93
2023-07-14T04:47:52.754Z,5.90
2023-07-14T04:50:19.356Z,5.53
2023-07-14T04:52:45.808Z,5.63
2023-07-14T04:55:12.413Z,5.50
2023-07-14T04:57:38.839Z,5.70
2023-07-14T05:00:05.708Z,5.85
2023-07-14T05:02:33.042Z,5.70
2023-07-14T05:05:15.060Z,5.40
2023-07-14T05:07:41.710Z,5.35
2023-07-14T05:10:08.392Z,5.22
2023-07-14T05:12:34.828Z,5.40
2023-07-14T05:15:05.115Z,5.40
2023-07-14T05:17:31.601Z,6.10
2023-07-14T05:19:58.002Z,5.55
2023-07-14T05:22:24.503Z,5.60
2023-07-14T05:24:51.044Z,5.55
2023-07-14T05:27:17.432Z,5.70
2023-07-14T05:29:45.541Z,5.40
2023-07-14T05:32:11.907Z,5.88
2023-07-14T05:34:38.230Z,5.60
2023-07-14T05:37:04.812Z,6.05
2023-07-14T05:39:31.265Z,6.07
2023-07-14T05:41:57.771Z,6.25
2023-07-14T05:44:24.316Z,5.68
2023-07-14T05:46:51.093Z,5.72
2023-07-14T05:49:17.535Z,5.68
2023-07-14T05:51:43.951Z,5.70
2023-07-14T05:54:10.304Z,5.40
2023-07-14T05:56:37.147Z,5.43
2023-07-14T05:59:03.600Z,5.65
2023-07-14T06:01:30.063Z,5.70
2023-07-14T06:03:56.550Z,5.53
2023-07-14T06:06:23.184Z,6.43
2023-07-14T06:08:49.542Z,6.38
2023-07-14T06:11:16.046Z,5.95
2023-07-14T06:13:42.460Z,6.20
2023-07-14T06:16:08.859Z,5.90
2023-07-14T06:18:35.319Z,5.85
2023-07-14T06:21:01.732Z,5.90
2023-07-14T06:23:28.208Z,6.28
2023-07-14T06:25:54.803Z,6.22
2023-07-14T06:28:21.673Z,6.60
2023-07-14T06:30:48.092Z,6.85
2023-07-14T06:33:14.553Z,6.78
2023-07-14T06:35:41.124Z,6.85
2023-07-14T06:38:07.552Z,7.10
2023-07-14T06:40:34.145Z,7.00
2023-07-14T06:43:00.642Z,7.15
2023-07-14T06:45:27.227Z,7.47
2023-07-14T06:47:53.845Z,7.75
2023-07-14T06:50:20.256Z,7.00
2023-07-14T06:52:47.114Z,7.13
2023-07-14T06:55:13.700Z,7.18
2023-07-14T06:57:40.139Z,6.60
2023-07-14T07:00:06.882Z,6.40
2023-07-14T07:02:33.323Z,6.93
2023-07-14T07:04:59.777Z,6.63
2023-07-14T07:07:26.209Z,6.40
2023-07-14T07:09:52.570Z,6.75
2023-07-14T07:12:18.965Z,6.07
2023-07-14T07:14:45.354Z,5.80
2023-07-14T07:17:11.821Z,5.87
2023-07-14T07:19:38.363Z,6.30
2023-07-14T07:22:07.196Z,6.20
2023-07-14T07:24:33.620Z,5.75
2023-07-14T07:27:00.268Z,6.30
2023-07-14T07:29:26.700Z,5.93
2023-07-14T07:31:53.604Z,5.85
2023-07-14T07:34:20.220Z,5.68
2023-07-14T07:36:46.598Z,5.50
2023-07-14T07:39:12.998Z,5.88
2023-07-14T07:41:39.473Z,5.50
2023-07-14T07:44:05.965Z,5.35
2023-07-14T07:46:32.480Z,5.30
2023-07-14T07:48:58.872Z,5.30
2023-07-14T07:51:27.804Z,5.10
2023-07-14T07:53:54.170Z,5.50
2023-07-14T07:56:20.578Z,6.00
2023-07-14T07:58:46.984Z,5.75
2023-07-14T08:01:20.870Z,5.53
2023-07-14T08:03:47.907Z,6.00
2023-07-14T08:06:14.844Z,5.00
2023-07-14T08:08:41.521Z,4.80
2023-07-14T08:11:12.356Z,5.20
2023-07-14T08:13:39.099Z,4.80
2023-07-14T08:16:06.074Z,4.78
2023-07-14T08:18:32.478Z,5.13
2023-07-14T08:20:59.470Z,4.85
2023-07-14T08:23:29.130Z,5.20
2023-07-14T08:25:57.553Z,5.25
2023-07-14T08:28:25.164Z,4.57
2023-07-14T08:30:52.876Z,4.70
2023-07-14T08:33:19.562Z,4.55
2023-07-14T08:35:46.383Z,4.60
2023-07-14T08:38:12.768Z,4.97
2023-07-14T08:40:48.211Z,4.38
2023-07-14T08:43:14.574Z,4.20
2023-07-14T08:45:55.541Z,4.05
2023-07-14T08:48:24.963Z,3.45
2023-07-14T08:50:53.620Z,3.10
2023-07-14T08:53:26.444Z,3.00
2023-07-14T08:55:55.323Z,3.27
2023-07-14T08:58:24.005Z,3.45
2023-07-14T09:00:50.351Z,3.47
2023-07-14T09:03:19.371Z,3.00
2023-07-14T09:05:55.968Z,2.85
2023-07-14T09:08:26.743Z,2.30
2023-07-14T09:11:03.493Z,2.70
2023-07-14T09:13:49.732Z,2.80
2023-07-14T09:16:19.037Z,3.30
2023-07-14T09:18:57.978Z,3.40
2023-07-14T09:21:24.396Z,3.30
2023-07-14T09:23:57.122Z,3.70
2023-07-14T09:26:29.257Z,3.70
2023-07-14T09:28:56.501Z,4.00
2023-07-14T09:31:23.014Z,4.38
2023-07-14T09:33:51.002Z,3.60
2023-07-14T09:36:19.176Z,3.40
2023-07-14T09:38:48.098Z,3.42
2023-07-14T09:41:16.020Z,3.47
2023-07-14T09:43:42.485Z,3.47
2023-07-14T09:46:09.942Z,3.37
2023-07-14T09:48:41.688Z,2.97
2023-07-14T09:51:13.962Z,3.40
2023-07-14T09:53:56.486Z,3.35
2023-07-14T09:56:25.488Z,3.22
2023-07-14T09:58:53.928Z,3.00
2023-07-14T10:01:20.611Z,3.10
2023-07-14T10:03:51.532Z,3.00
2023-07-14T10:06:18.064Z,3.00
2023-07-14T10:08:52.083Z,2.95
2023-07-14T10:11:18.441Z,2.83
2023-07-14T10:13:57.098Z,2.78
2023-07-14T10:16:23.525Z,3.03
2023-07-14T10:18:57.677Z,2.65
2023-07-14T10:21:26.371Z,3.00
2023-07-14T10:23:58.621Z,2.90
2023-07-14T10:26:27.542Z,2.88
2023-07-14T10:28:55.897Z,2.90
2023-07-14T10:31:43.900Z,3.10
2023-07-14T10:34:16.828Z,3.10
2023-07-14T10:36:44.097Z,2.87
2023-07-14T10:39:29.256Z,3.20
2023-07-14T10:41:56.246Z,2.80
2023-07-14T10:44:34.611Z,3.10
2023-07-14T10:47:04.081Z,2.90
2023-07-14T10:49:35.671Z,2.90
2023-07-14T10:52:12.874Z,2.80
2023-07-14T10:54:51.106Z,3.03
2023-07-14T10:57:36.241Z,2.95
2023-07-14T11:00:25.807Z,3.50
2023-07-14T11:03:11.089Z,2.90
2023-07-14T11:05:38.064Z,3.15
2023-07-14T11:08:04.668Z,3.30
2023-07-14T11:10:51.332Z,3.28
2023-07-14T11:13:29.964Z,3.38
2023-07-14T11:15:58.505Z,3.17
2023-07-14T11:18:26.832Z,3.17
2023-07-14T11:21:12.191Z,2.80
2023-07-14T11:23:49.752Z,3.00
2023-07-14T11:26:16.122Z,3.00
2023-07-14T11:29:01.263Z,2.60
2023-07-14T11:31:32.126Z,2.60
2023-07-14T11:33:58.573Z,2.97
2023-07-14T11:36:34.245Z,2.70
2023-07-14T11:39:00.650Z,2.85
2023-07-14T11:41:27.498Z,2.80
2023-07-14T11:43:54.555Z,3.10
2023-07-14T11:46:22.138Z,3.35
2023-07-14T11:48:51.317Z,3.20
2023-07-14T11:51:18.530Z,3.30
2023-07-14T11:54:05.093Z,3.50
2023-07-14T11:56:35.424Z,3.25
2023-07-14T11:59:17.786Z,3.83
2023-07-14T12:01:45.740Z,3.50
2023-07-14T12:04:20.388Z,3.47
2023-07-14T12:06:46.846Z,3.43
2023-07-14T12:09:17.445Z,3.40
2023-07-14T12:11:45.694Z,3.80
2023-07-14T12:14:24.502Z,3.85
2023-07-14T12:16:51.005Z,3.30
2023-07-14T12:19:28.227Z,2.90
2023-07-14T12:21:58.754Z,3.47
2023-07-14T12:24:28.932Z,3.58
2023-07-14T12:27:13.719Z,3.50
2023-07-14T12:29:56.173Z,3.25
2023-07-14T12:32:24.779Z,3.30
2023-07-14T12:34:51.269Z,3.60
2023-07-14T12:37:19.216Z,3.40
2023-07-14T12:39:49.679Z,3.13
2023-07-14T12:42:16.403Z,3.15
2023-07-14T12:44:43.537Z,3.40
2023-07-14T12:47:18.516Z,3.20
2023-07-14T12:49:47.561Z,3.42
2023-07-14T12:52:16.265Z,3.35
2023-07-14T12:54:46.666Z,3.30
2023-07-14T12:57:17.027Z,3.33
2023-07-14T12:59:51.000Z,2.80
2023-07-14T13:02:17.681Z,3.10
2023-07-14T13:04:44.710Z,3.30
2023-07-14T13:07:13.747Z,2.90
2023-07-14T13:09:40.377Z,2.87
2023-07-14T13:12:06.935Z,2.70
2023-07-14T13:14:39.205Z,3.28
2023-07-14T13:17:05.916Z,2.88
2023-07-14T13:19:34.738Z,2.80
2023-07-14T13:22:02.018Z,2.70
2023-07-14T13:24:28.980Z,2.70
2023-07-14T13:26:55.355Z,3.00
2023-07-14T13:29:24.408Z,2.80
2023-07-14T13:31:59.752Z,2.90
2023-07-14T13:34:33.223Z,2.80
2023-07-14T13:37:06.165Z,3.05
2023-07-14T13:39:36.725Z,2.80
2023-07-14T13:42:05.218Z,3.00
2023-07-14T13:44:43.603Z,2.90
2023-07-14T13:47:10.991Z,2.80
2023-07-14T13:49:37.613Z,2.80
2023-07-14T13:52:08.688Z,2.92
2023-07-14T13:54:40.133Z,2.88
2023-07-14T13:57:09.633Z,2.90
2023-07-14T13:59:36.153Z,2.80
2023-07-14T14:02:10.080Z,3.05
2023-07-14T14:04:36.718Z,2.60
2023-07-14T14:07:03.291Z,3.08
2023-07-14T14:09:29.860Z,2.78
2023-07-14T14:11:56.302Z,2.90
2023-07-14T14:14:22.719Z,3.15
2023-07-14T14:16:49.696Z,3.20
2023-07-14T14:19:20.137Z,3.10
2023-07-14T14:21:46.909Z,2.90
2023-07-14T14:24:13.463Z,3.10
2023-07-14T14:26:39.840Z,2.90
2023-07-14T14:29:06.360Z,2.92
2023-07-14T14:31:33.328Z,3.00
2023-07-14T14:33:59.859Z,3.00
2023-07-14T14:36:26.612Z,3.03
2023-07-14T14:38:53.103Z,3.08
2023-07-14T14:41:37.797Z,3.08
2023-07-14T14:44:07.113Z,2.97
2023-07-14T14:46:33.829Z,3.22
2023-07-14T14:49:00.496Z,3.10
2023-07-14T14:51:26.894Z,3.60
2023-07-14T14:53:53.284Z,3.72
2023-07-14T14:56:25.724Z,3.50
2023-07-14T14:58:54.848Z,3.20
2023-07-14T15:01:29.220Z,3.30
2023-07-14T15:03:55.743Z,3.40
2023-07-14T15:06:22.265Z,3.20
2023-07-14T15:08:48.697Z,3.63
2023-07-14T15:11:15.930Z,3.25
2023-07-14T15:13:42.383Z,3.70
2023-07-14T15:16:10.630Z,3.58
2023-07-14T15:18:38.147Z,3.10
2023-07-14T15:21:11.384Z,3.78
2023-07-14T15:23:37.782Z,3.30
2023-07-14T15:26:04.275Z,2.90
2023-07-14T15:28:30.627Z,3.50
2023-07-14T15:30:57.260Z,3.33
2023-07-14T15:33:23.651Z,3.35
2023-07-14T15:35:57.890Z,3.47
2023-07-14T15:38:36.856Z,3.20
2023-07-14T15:41:03.331Z,3.25
2023-07-14T15:43:30.716Z,3.28
2023-07-14T15:45:58.306Z,3.20
2023-07-14T15:48:39.944Z,3.30
2023-07-14T15:51:12.821Z,3.20
2023-07-14T15:53:40.402Z,3.25
2023-07-14T15:56:11.181Z,3.00
2023-07-14T15:58:37.831Z,3.30
2023-07-14T16:01:17.439Z,3.30
2023-07-14T16:03:52.007Z,3.60
2023-07-14T16:06:18.917Z,3.00
2023-07-14T16:08:46.681Z,3.13
2023-07-14T16:11:33.109Z,3.25
2023-07-14T16:14:00.170Z,3.60
2023-07-14T16:16:27.001Z,3.50
2023-07-14T16:18:53.779Z,3.35
2023-07-14T16:21:24.834Z,3.50
2023-07-14T16:23:51.595Z,3.72
2023-07-14T16:26:18.008Z,3.38
2023-07-14T16:28:44.356Z,3.17
2023-07-14T16:31:14.890Z,3.20
2023-07-14T16:33:41.664Z,3.38
2023-07-14T16:36:21.735Z,3.40
2023-07-14T16:38:48.120Z,3.35
2023-07-14T16:41:14.662Z,3.70
2023-07-14T16:43:41.078Z,3.50
2023-07-14T16:46:07.508Z,3.10
2023-07-14T16:48:33.913Z,3.35
2023-07-14T16:51:00.369Z,3.30
2023-07-14T16:53:26.940Z,3.50
2023-07-14T16:55:53.471Z,3.40
2023-07-14T16:58:24.083Z,3.40
2023-07-14T17:00:50.947Z,3.15
2023-07-14T17:03:20.417Z,3.50
2023-07-14T17:05:46.781Z,3.40
2023-07-14T17:08:23.878Z,3.28
2023-07-14T17:10:50.577Z,3.22
2023-07-14T17:13:26.314Z,3.33
2023-07-14T17:15:54.068Z,3.40
2023-07-14T17:18:22.457Z,3.30
2023-07-14T17:20:49.965Z,3.30
2023-07-14T17:23:21.133Z,3.40
2023-07-14T17:25:47.508Z,3.35
2023-07-14T17:28:18.422Z,3.58
2023-07-14T17:30:45.392Z,4.67
2023-07-14T17:33:12.007Z,4.25
2023-07-14T17:35:38.427Z,3.70
2023-07-14T17:38:04.992Z,3.67
2023-07-14T17:40:32.451Z,3.90
2023-07-14T17:42:59.342Z,4.20
2023-07-14T17:45:26.570Z,4.18
2023-07-14T17:47:53.909Z,3.20
2023-07-14T17:50:21.782Z,3.28
2023-07-14T17:52:49.569Z,3.10
2023-07-14T17:55:34.068Z,2.77
2023-07-14T17:58:00.419Z,2.70
2023-07-14T18:00:28.061Z,2.80
2023-07-14T18:03:03.454Z,2.80
2023-07-14T18:05:29.968Z,2.90
2023-07-14T18:07:58.778Z,3.40
2023-07-14T18:10:26.678Z,3.40
2023-07-14T18:12:53.522Z,3.40
2023-07-14T18:15:27.729Z,3.30
2023-07-14T18:17:54.883Z,3.13
2023-07-14T18:20:22.797Z,2.87
2023-07-14T18:22:49.342Z,2.90
2023-07-14T18:25:20.696Z,2.83
2023-07-14T18:27:48.032Z,2.70
2023-07-14T18:30:15.359Z,2.90
2023-07-14T18:32:42.238Z,2.90
2023-07-14T18:35:22.398Z,2.75
2023-07-14T18:37:48.843Z,2.92
2023-07-14T18:40:15.739Z,2.80
2023-07-14T18:42:42.109Z,3.03
2023-07-14T18:45:34.987Z,3.00
2023-07-14T18:48:11.885Z,2.95
2023-07-14T18:50:38.365Z,2.78
2023-07-14T18:53:12.007Z,2.97
2023-07-14T18:55:38.518Z,2.90
2023-07-14T18:58:11.189Z,2.90
2023-07-14T19:00:37.623Z,2.80
2023-07-14T19:03:04.168Z,3.00
2023-07-14T19:05:30.549Z,2.80
2023-07-14T19:07:56.909Z,3.15
2023-07-14T19:10:23.294Z,3.60
2023-07-14T19:12:49.728Z,3.20
2023-07-14T19:15:17.295Z,3.35
2023-07-14T19:17:44.030Z,3.05
2023-07-14T19:20:12.101Z,3.50
2023-07-14T19:22:38.698Z,3.33
2023-07-14T19:25:13.186Z,3.28
2023-07-14T19:27:39.589Z,3.00
2023-07-14T19:30:06.749Z,3.15
2023-07-14T19:32:33.311Z,3.17
2023-07-14T19:34:59.889Z,2.90
2023-07-14T19:37:26.335Z,2.95
2023-07-14T19:39:52.775Z,3.08
2023-07-14T19:42:19.206Z,2.90
2023-07-14T19:44:46.124Z,3.05
2023-07-14T19:47:19.435Z,3.40
2023-07-14T19:49:45.914Z,3.50
2023-07-14T19:52:12.317Z,3.35
2023-07-14T19:54:38.764Z,3.30
2023-07-14T19:57:13.213Z,3.50
2023-07-14T19:59:41.420Z,3.10
2023-07-14T20:02:20.856Z,3.22
2023-07-14T20:04:47.226Z,3.35
2023-07-14T20:07:13.606Z,3.55
2023-07-14T20:09:39.977Z,3.40
2023-07-14T20:12:15.403Z,3.77
2023-07-14T20:14:41.749Z,3.88
2023-07-14T20:17:10.919Z,4.10
2023-07-14T20:19:37.309Z,3.70
2023-07-14T20:22:04.172Z,3.50
2023-07-14T20:24:30.564Z,3.90
2023-07-14T20:26:57.176Z,3.63
2023-07-14T20:29:23.535Z,3.83
2023-07-14T20:31:50.178Z,3.67
2023-07-14T20:34:17.343Z,3.80
2023-07-14T20:36:44.685Z,3.67
2023-07-14T20:39:11.683Z,3.67
2023-07-14T20:41:38.330Z,3.78
2023-07-14T20:44:05.089Z,3.95
2023-07-14T20:46:38.309Z,4.10
2023-07-14T20:49:17.321Z,3.70
2023-07-14T20:51:46.414Z,3.90
2023-07-14T20:54:13.434Z,3.80
2023-07-14T20:56:39.896Z,4.05
2023-07-14T20:59:06.332Z,4.30
2023-07-14T21:01:35.480Z,4.37
2023-07-14T21:04:05.361Z,4.03
2023-07-14T21:06:31.763Z,4.65
2023-07-14T21:08:58.215Z,4.03
2023-07-14T21:11:26.871Z,4.30
2023-07-14T21:13:54.451Z,4.27
2023-07-14T21:16:21.727Z,4.20
2023-07-14T21:18:48.412Z,4.20
2023-07-14T21:21:20.887Z,4.18
2023-07-14T21:23:47.354Z,4.30
2023-07-14T21:26:23.126Z,4.20
2023-07-14T21:28:50.995Z,4.40
2023-07-14T21:31:17.612Z,4.10
2023-07-14T21:33:44.269Z,4.28
2023-07-14T21:36:16.446Z,4.13
2023-07-14T21:38:42.840Z,4.40
2023-07-14T21:41:09.931Z,4.05
2023-07-14T21:43:37.383Z,4.38
2023-07-14T21:46:03.848Z,4.30
2023-07-14T21:48:30.358Z,4.15
2023-07-14T21:51:01.895Z,4.30
2023-07-14T21:53:30.011Z,4.20
2023-07-14T21:55:56.632Z,4.50
2023-07-14T21:58:29.794Z,4.40
2023-07-14T22:00:56.572Z,4.30
2023-07-14T22:03:23.079Z,4.43
2023-07-14T22:05:54.378Z,4.20
2023-07-14T22:08:25.478Z,4.30
2023-07-14T22:10:53.376Z,4.47
2023-07-14T22:13:27.994Z,4.78
2023-07-14T22:15:54.794Z,4.40
2023-07-14T22:18:35.835Z,4.53
2023-07-14T22:21:14.154Z,4.60
2023-07-14T22:23:40.629Z,4.28
2023-07-14T22:26:11.427Z,4.45
2023-07-14T22:28:38.088Z,4.43
2023-07-14T22:31:10.364Z,4.13
2023-07-14T22:33:36.824Z,4.30
2023-07-14T22:36:03.916Z,4.50
2023-07-14T22:38:30.976Z,4.20
2023-07-14T22:41:03.292Z,4.27
2023-07-14T22:43:31.617Z,4.13
2023-07-14T22:45:58.219Z,4.03
2023-07-14T22:48:25.101Z,3.70
2023-07-14T22:50:53.010Z,4.00
2023-07-14T22:53:20.823Z,4.07
2023-07-14T22:55:49.245Z,3.88
2023-07-14T22:58:17.286Z,3.80
2023-07-14T23:00:44.709Z,4.00
2023-07-14T23:03:14.221Z,3.95
2023-07-14T23:05:40.578Z,3.70
2023-07-14T23:08:11.282Z,3.60
2023-07-14T23:10:37.634Z,3.75
2023-07-14T23:13:06.114Z,3.50
2023-07-14T23:15:32.516Z,3.40
2023-07-14T23:17:58.897Z,3.40
2023-07-14T23:20:25.414Z,3.50
2023-07-14T23:22:51.892Z,3.10
2023-07-14T23:25:19.834Z,3.28
2023-07-14T23:27:46.480Z,3.40
2023-07-14T23:30:13.592Z,3.00
2023-07-14T23:32:39.965Z,3.10
2023-07-14T23:35:12.213Z,3.13
2023-07-14T23:37:38.664Z,3.03
2023-07-14T23:40:05.950Z,3.10
2023-07-14T23:42:32.337Z,2.63
2023-07-14T23:44:58.670Z,3.05
2023-07-14T23:47:25.092Z,2.90
2023-07-14T23:49:51.570Z,2.70
2023-07-14T23:52:17.979Z,2.90
2023-07-14T23:54:44.351Z,2.73
2023-07-14T23:57:11.010Z,2.88
2023-07-14T23:59:37.371Z,2.60
